sensor_id;sensor_type;location;lat;lon;timestamp;temperature;humidity
50804;DHT22;37205;51.434;6.756;2023-12-20T00:02:16;8.00;99.90
50804;DHT22;37205;51.434;6.756;2023-12-20T00:04:41;7.90;99.90
50804;DHT22;37205;51.434;6.756;2023-12-20T00:07:07;7.90;99.90
50804;DHT22;37205;51.434;6.756;2023-12-20T00:09:32;7.90;99.90
50804;DHT22;37205;51.434;6.756;2023-12-20T00:11:58;7.80;99.90
50804;DHT22;37205;51.434;6.756;2023-12-20T00:14:24;7.80;99.90
50804;DHT22;37205;51.434;6.756;2023-12-20T00:16:49;7.80;99.90
50804;DHT22;37205;51.434;6.756;2023-12-20T00:19:15;7.70;99.90
50804;DHT22;37205;51.434;6.756;2023-12-20T00:21:40;7.60;99.90
50804;DHT22;37205;51.434;6.756;2023-12-20T00:24:06;7.70;99.90
50804;DHT22;37205;51.434;6.756;2023-12-20T00:26:31;7.60;99.90
50804;DHT22;37205;51.434;6.756;2023-12-20T00:28:57;7.50;99.90
50804;DHT22;37205;51.434;6.756;2023-12-20T00:31:22;7.50;99.90
50804;DHT22;37205;51.434;6.756;2023-12-20T00:33:48;7.60;99.90
50804;DHT22;37205;51.434;6.756;2023-12-20T00:36:13;7.60;99.90
50804;DHT22;37205;51.434;6.756;2023-12-20T00:38:39;7.60;99.90
50804;DHT22;37205;51.434;6.756;2023-12-20T00:41:05;7.60;99.90
50804;DHT22;37205;51.434;6.756;2023-12-20T00:43:30;7.60;99.90
50804;DHT22;37205;51.434;6.756;2023-12-20T00:45:56;7.60;99.90
50804;DHT22;37205;51.434;6.756;2023-12-20T00:48:21;7.60;99.90
50804;DHT22;37205;51.434;6.756;2023-12-20T00:50:47;7.60;99.90
50804;DHT22;37205;51.434;6.756;2023-12-20T00:53:15;7.60;99.90
50804;DHT22;37205;51.434;6.756;2023-12-20T00:55:41;7.60;99.90
50804;DHT22;37205;51.434;6.756;2023-12-20T00:58:06;7.60;99.90
50804;DHT22;37205;51.434;6.756;2023-12-20T01:00:32;7.60;99.90
50804;DHT22;37205;51.434;6.756;2023-12-20T01:03:05;7.60;99.90
50804;DHT22;37205;51.434;6.756;2023-12-20T01:05:30;7.60;99.90
50804;DHT22;37205;51.434;6.756;2023-12-20T01:07:56;7.60;99.90
50804;DHT22;37205;51.434;6.756;2023-12-20T01:10:21;7.70;99.90
50804;DHT22;37205;51.434;6.756;2023-12-20T01:12:48;7.70;99.90
50804;DHT22;37205;51.434;6.756;2023-12-20T01:15:13;7.70;99.90
50804;DHT22;37205;51.434;6.756;2023-12-20T01:17:39;7.60;99.90
50804;DHT22;37205;51.434;6.756;2023-12-20T01:20:05;7.60;99.90
50804;DHT22;37205;51.434;6.756;2023-12-20T01:22:31;7.60;99.90
50804;DHT22;37205;51.434;6.756;2023-12-20T01:24:56;7.60;99.90
50804;DHT22;37205;51.434;6.756;2023-12-20T01:27:22;7.60;99.90
50804;DHT22;37205;51.434;6.756;2023-12-20T01:29:47;7.60;99.90
50804;DHT22;37205;51.434;6.756;2023-12-20T01:32:13;7.60;99.90
50804;DHT22;37205;51.434;6.756;2023-12-20T01:34:38;7.60;99.90
50804;DHT22;37205;51.434;6.756;2023-12-20T01:37:04;7.50;99.90
50804;DHT22;37205;51.434;6.756;2023-12-20T01:39:29;7.50;99.90
50804;DHT22;37205;51.434;6.756;2023-12-20T01:41:55;7.50;99.90
50804;DHT22;37205;51.434;6.756;2023-12-20T01:44:20;7.40;99.90
50804;DHT22;37205;51.434;6.756;2023-12-20T01:46:46;7.30;99.90
50804;DHT22;37205;51.434;6.756;2023-12-20T01:49:13;7.30;99.90
50804;DHT22;37205;51.434;6.756;2023-12-20T01:51:39;7.20;99.90
50804;DHT22;37205;51.434;6.756;2023-12-20T01:54:04;7.10;99.90
50804;DHT22;37205;51.434;6.756;2023-12-20T01:56:31;7.10;99.90
50804;DHT22;37205;51.434;6.756;2023-12-20T01:58:57;7.00;99.90
50804;DHT22;37205;51.434;6.756;2023-12-20T02:01:23;7.10;99.90
50804;DHT22;37205;51.434;6.756;2023-12-20T02:03:50;7.10;99.90
50804;DHT22;37205;51.434;6.756;2023-12-20T02:06:24;7.00;99.90
50804;DHT22;37205;51.434;6.756;2023-12-20T02:08:51;7.00;99.90
50804;DHT22;37205;51.434;6.756;2023-12-20T02:11:17;6.90;99.90
50804;DHT22;37205;51.434;6.756;2023-12-20T02:13:42;6.90;99.90
50804;DHT22;37205;51.434;6.756;2023-12-20T02:16:08;6.80;99.90
50804;DHT22;37205;51.434;6.756;2023-12-20T02:18:33;6.80;99.90
50804;DHT22;37205;51.434;6.756;2023-12-20T02:20:59;6.80;99.90
50804;DHT22;37205;51.434;6.756;2023-12-20T02:23:24;6.80;99.90
50804;DHT22;37205;51.434;6.756;2023-12-20T02:25:50;6.80;99.90
50804;DHT22;37205;51.434;6.756;2023-12-20T02:28:16;6.70;99.90
50804;DHT22;37205;51.434;6.756;2023-12-20T02:30:42;6.60;99.90
50804;DHT22;37205;51.434;6.756;2023-12-20T02:33:08;6.60;99.90
50804;DHT22;37205;51.434;6.756;2023-12-20T02:35:35;6.60;99.90
50804;DHT22;37205;51.434;6.756;2023-12-20T02:38:01;6.60;99.90
50804;DHT22;37205;51.434;6.756;2023-12-20T02:40:26;6.50;99.90
50804;DHT22;37205;51.434;6.756;2023-12-20T02:42:52;6.50;99.90
50804;DHT22;37205;51.434;6.756;2023-12-20T02:45:17;6.40;99.90
50804;DHT22;37205;51.434;6.756;2023-12-20T02:47:43;6.30;99.90
50804;DHT22;37205;51.434;6.756;2023-12-20T02:50:08;6.30;99.90
50804;DHT22;37205;51.434;6.756;2023-12-20T02:52:34;6.30;99.90
50804;DHT22;37205;51.434;6.756;2023-12-20T02:55:00;6.30;99.90
50804;DHT22;37205;51.434;6.756;2023-12-20T02:57:25;6.30;99.90
50804;DHT22;37205;51.434;6.756;2023-12-20T02:59:51;6.20;99.90
50804;DHT22;37205;51.434;6.756;2023-12-20T03:02:16;6.20;99.90
50804;DHT22;37205;51.434;6.756;2023-12-20T03:04:45;6.20;99.90
50804;DHT22;37205;51.434;6.756;2023-12-20T03:07:10;6.20;99.90
50804;DHT22;37205;51.434;6.756;2023-12-20T03:09:37;6.20;99.90
50804;DHT22;37205;51.434;6.756;2023-12-20T03:12:03;6.20;99.90
50804;DHT22;37205;51.434;6.756;2023-12-20T03:14:29;6.20;99.90
50804;DHT22;37205;51.434;6.756;2023-12-20T03:16:54;6.30;99.90
50804;DHT22;37205;51.434;6.756;2023-12-20T03:19:20;6.20;99.90
50804;DHT22;37205;51.434;6.756;2023-12-20T03:21:45;6.30;99.90
50804;DHT22;37205;51.434;6.756;2023-12-20T03:24:11;6.30;99.90
50804;DHT22;37205;51.434;6.756;2023-12-20T03:26:36;6.30;99.90
50804;DHT22;37205;51.434;6.756;2023-12-20T03:29:02;6.30;99.90
50804;DHT22;37205;51.434;6.756;2023-12-20T03:31:27;6.20;99.90
50804;DHT22;37205;51.434;6.756;2023-12-20T03:33:53;6.30;99.90
50804;DHT22;37205;51.434;6.756;2023-12-20T03:36:19;6.30;99.90
50804;DHT22;37205;51.434;6.756;2023-12-20T03:38:45;6.30;99.90
50804;DHT22;37205;51.434;6.756;2023-12-20T03:41:11;6.20;99.90
50804;DHT22;37205;51.434;6.756;2023-12-20T03:43:36;6.20;99.90
50804;DHT22;37205;51.434;6.756;2023-12-20T03:46:03;6.20;99.90
50804;DHT22;37205;51.434;6.756;2023-12-20T03:48:29;6.10;99.90
50804;DHT22;37205;51.434;6.756;2023-12-20T03:50:55;6.00;99.90
50804;DHT22;37205;51.434;6.756;2023-12-20T03:53:22;6.00;99.90
50804;DHT22;37205;51.434;6.756;2023-12-20T03:55:47;6.00;99.90
50804;DHT22;37205;51.434;6.756;2023-12-20T03:58:13;6.10;99.90
50804;DHT22;37205;51.434;6.756;2023-12-20T04:00:39;6.00;99.90
50804;DHT22;37205;51.434;6.756;2023-12-20T04:05:52;6.00;99.90
50804;DHT22;37205;51.434;6.756;2023-12-20T04:08:17;5.90;99.90
50804;DHT22;37205;51.434;6.756;2023-12-20T04:10:43;5.90;99.90
50804;DHT22;37205;51.434;6.756;2023-12-20T04:13:08;5.90;99.90
50804;DHT22;37205;51.434;6.756;2023-12-20T04:15:34;5.90;99.90
50804;DHT22;37205;51.434;6.756;2023-12-20T04:18:00;5.90;99.90
50804;DHT22;37205;51.434;6.756;2023-12-20T04:20:25;6.00;99.90
50804;DHT22;37205;51.434;6.756;2023-12-20T04:22:51;6.00;99.90
50804;DHT22;37205;51.434;6.756;2023-12-20T04:25:16;6.00;99.90
50804;DHT22;37205;51.434;6.756;2023-12-20T04:27:41;6.00;99.90
50804;DHT22;37205;51.434;6.756;2023-12-20T04:30:07;6.10;99.90
50804;DHT22;37205;51.434;6.756;2023-12-20T04:32:33;6.10;99.90
50804;DHT22;37205;51.434;6.756;2023-12-20T04:34:58;6.10;99.90
50804;DHT22;37205;51.434;6.756;2023-12-20T04:37:24;6.10;99.90
50804;DHT22;37205;51.434;6.756;2023-12-20T04:39:50;6.20;99.90
50804;DHT22;37205;51.434;6.756;2023-12-20T04:42:16;6.10;99.90
50804;DHT22;37205;51.434;6.756;2023-12-20T04:44:41;6.20;99.90
50804;DHT22;37205;51.434;6.756;2023-12-20T04:47:09;6.20;99.90
50804;DHT22;37205;51.434;6.756;2023-12-20T04:49:34;6.20;99.90
50804;DHT22;37205;51.434;6.756;2023-12-20T04:52:00;6.20;99.90
50804;DHT22;37205;51.434;6.756;2023-12-20T04:54:25;6.10;99.90
50804;DHT22;37205;51.434;6.756;2023-12-20T04:56:51;6.00;99.90
50804;DHT22;37205;51.434;6.756;2023-12-20T04:59:16;6.00;99.90
50804;DHT22;37205;51.434;6.756;2023-12-20T05:01:42;5.90;99.90
50804;DHT22;37205;51.434;6.756;2023-12-20T05:04:07;5.90;99.90
50804;DHT22;37205;51.434;6.756;2023-12-20T05:06:33;5.90;99.90
50804;DHT22;37205;51.434;6.756;2023-12-20T05:08:58;5.80;99.90
50804;DHT22;37205;51.434;6.756;2023-12-20T05:11:24;5.70;99.90
50804;DHT22;37205;51.434;6.756;2023-12-20T05:13:50;5.70;99.90
50804;DHT22;37205;51.434;6.756;2023-12-20T05:16:21;5.70;99.90
50804;DHT22;37205;51.434;6.756;2023-12-20T05:19:10;5.70;99.90
50804;DHT22;37205;51.434;6.756;2023-12-20T05:27:45;5.90;99.90
50804;DHT22;37205;51.434;6.756;2023-12-20T05:30:17;5.90;99.90
50804;DHT22;37205;51.434;6.756;2023-12-20T05:36:23;6.00;99.90
50804;DHT22;37205;51.434;6.756;2023-12-20T05:39:34;6.00;99.90
50804;DHT22;37205;51.434;6.756;2023-12-20T05:42:00;6.10;99.90
50804;DHT22;37205;51.434;6.756;2023-12-20T05:44:29;6.00;99.90
50804;DHT22;37205;51.434;6.756;2023-12-20T05:46:57;6.10;99.90
50804;DHT22;37205;51.434;6.756;2023-12-20T05:49:44;6.10;99.90
50804;DHT22;37205;51.434;6.756;2023-12-20T05:52:10;6.10;99.90
50804;DHT22;37205;51.434;6.756;2023-12-20T05:54:44;6.20;99.90
50804;DHT22;37205;51.434;6.756;2023-12-20T05:57:39;6.20;99.90
50804;DHT22;37205;51.434;6.756;2023-12-20T06:00:12;6.10;99.90
50804;DHT22;37205;51.434;6.756;2023-12-20T06:02:50;6.10;99.90
50804;DHT22;37205;51.434;6.756;2023-12-20T06:05:52;6.20;99.90
50804;DHT22;37205;51.434;6.756;2023-12-20T06:08:18;6.20;99.90
50804;DHT22;37205;51.434;6.756;2023-12-20T06:10:44;6.30;99.90
50804;DHT22;37205;51.434;6.756;2023-12-20T06:13:10;6.20;99.90
50804;DHT22;37205;51.434;6.756;2023-12-20T06:15:37;6.30;99.90
50804;DHT22;37205;51.434;6.756;2023-12-20T06:18:02;6.30;99.90
50804;DHT22;37205;51.434;6.756;2023-12-20T06:20:28;6.30;99.90
50804;DHT22;37205;51.434;6.756;2023-12-20T06:22:54;6.30;99.90
50804;DHT22;37205;51.434;6.756;2023-12-20T06:25:19;6.30;99.90
50804;DHT22;37205;51.434;6.756;2023-12-20T06:27:45;6.30;99.90
50804;DHT22;37205;51.434;6.756;2023-12-20T06:30:10;6.40;99.90
50804;DHT22;37205;51.434;6.756;2023-12-20T06:32:36;6.40;99.90
50804;DHT22;37205;51.434;6.756;2023-12-20T06:35:03;6.40;99.90
50804;DHT22;37205;51.434;6.756;2023-12-20T06:37:30;6.40;99.90
50804;DHT22;37205;51.434;6.756;2023-12-20T06:39:55;6.40;99.90
50804;DHT22;37205;51.434;6.756;2023-12-20T06:42:22;6.40;99.90
50804;DHT22;37205;51.434;6.756;2023-12-20T06:44:47;6.50;99.90
50804;DHT22;37205;51.434;6.756;2023-12-20T06:47:13;6.50;99.90
50804;DHT22;37205;51.434;6.756;2023-12-20T06:49:39;6.50;99.90
50804;DHT22;37205;51.434;6.756;2023-12-20T06:52:05;6.50;99.90
50804;DHT22;37205;51.434;6.756;2023-12-20T06:54:31;6.50;99.90
50804;DHT22;37205;51.434;6.756;2023-12-20T06:56:57;6.60;99.90
50804;DHT22;37205;51.434;6.756;2023-12-20T06:59:22;6.60;99.90
50804;DHT22;37205;51.434;6.756;2023-12-20T07:01:50;6.60;99.90
50804;DHT22;37205;51.434;6.756;2023-12-20T07:04:16;6.70;99.90
50804;DHT22;37205;51.434;6.756;2023-12-20T07:06:45;6.70;99.90
50804;DHT22;37205;51.434;6.756;2023-12-20T07:09:11;6.70;99.90
50804;DHT22;37205;51.434;6.756;2023-12-20T07:11:38;6.80;99.90
50804;DHT22;37205;51.434;6.756;2023-12-20T07:14:04;6.70;99.90
50804;DHT22;37205;51.434;6.756;2023-12-20T07:16:29;6.70;99.90
50804;DHT22;37205;51.434;6.756;2023-12-20T07:18:55;6.70;99.90
50804;DHT22;37205;51.434;6.756;2023-12-20T07:21:21;6.80;99.90
50804;DHT22;37205;51.434;6.756;2023-12-20T07:23:47;6.80;99.90
50804;DHT22;37205;51.434;6.756;2023-12-20T07:26:13;6.80;99.90
50804;DHT22;37205;51.434;6.756;2023-12-20T07:28:38;6.90;99.90
50804;DHT22;37205;51.434;6.756;2023-12-20T07:31:04;6.90;99.90
50804;DHT22;37205;51.434;6.756;2023-12-20T07:33:30;6.90;99.90
50804;DHT22;37205;51.434;6.756;2023-12-20T07:35:55;6.90;99.90
50804;DHT22;37205;51.434;6.756;2023-12-20T07:38:24;6.90;99.90
50804;DHT22;37205;51.434;6.756;2023-12-20T07:40:49;6.90;99.90
50804;DHT22;37205;51.434;6.756;2023-12-20T07:43:15;6.90;99.90
50804;DHT22;37205;51.434;6.756;2023-12-20T07:45:40;6.90;99.90
50804;DHT22;37205;51.434;6.756;2023-12-20T07:48:07;6.90;99.90
50804;DHT22;37205;51.434;6.756;2023-12-20T07:50:32;6.90;99.90
50804;DHT22;37205;51.434;6.756;2023-12-20T07:52:58;6.90;99.90
50804;DHT22;37205;51.434;6.756;2023-12-20T07:55:26;6.90;99.90
50804;DHT22;37205;51.434;6.756;2023-12-20T07:57:51;6.90;99.90
50804;DHT22;37205;51.434;6.756;2023-12-20T08:00:17;7.00;99.90
50804;DHT22;37205;51.434;6.756;2023-12-20T08:02:45;7.00;99.90
50804;DHT22;37205;51.434;6.756;2023-12-20T08:05:11;7.00;99.90
50804;DHT22;37205;51.434;6.756;2023-12-20T08:07:37;7.10;99.90
50804;DHT22;37205;51.434;6.756;2023-12-20T08:10:02;7.00;99.90
50804;DHT22;37205;51.434;6.756;2023-12-20T08:12:28;7.00;99.90
50804;DHT22;37205;51.434;6.756;2023-12-20T08:14:54;7.10;99.90
50804;DHT22;37205;51.434;6.756;2023-12-20T08:17:20;7.00;99.90
50804;DHT22;37205;51.434;6.756;2023-12-20T08:19:46;7.10;99.90
50804;DHT22;37205;51.434;6.756;2023-12-20T08:22:11;7.00;99.90
50804;DHT22;37205;51.434;6.756;2023-12-20T08:24:37;7.00;99.90
50804;DHT22;37205;51.434;6.756;2023-12-20T08:27:04;7.00;99.90
50804;DHT22;37205;51.434;6.756;2023-12-20T08:29:29;7.00;99.90
50804;DHT22;37205;51.434;6.756;2023-12-20T08:31:55;7.00;99.90
50804;DHT22;37205;51.434;6.756;2023-12-20T08:34:21;7.00;99.90
50804;DHT22;37205;51.434;6.756;2023-12-20T08:36:47;7.00;99.90
50804;DHT22;37205;51.434;6.756;2023-12-20T08:39:13;7.00;99.90
50804;DHT22;37205;51.434;6.756;2023-12-20T08:41:38;7.00;99.90
50804;DHT22;37205;51.434;6.756;2023-12-20T08:44:04;7.00;99.90
50804;DHT22;37205;51.434;6.756;2023-12-20T08:46:29;7.00;99.90
50804;DHT22;37205;51.434;6.756;2023-12-20T08:48:56;7.00;99.90
50804;DHT22;37205;51.434;6.756;2023-12-20T08:51:21;7.10;99.90
50804;DHT22;37205;51.434;6.756;2023-12-20T08:53:49;7.00;99.90
50804;DHT22;37205;51.434;6.756;2023-12-20T08:56:14;7.00;99.90
50804;DHT22;37205;51.434;6.756;2023-12-20T08:58:40;7.10;99.90
50804;DHT22;37205;51.434;6.756;2023-12-20T09:01:06;7.10;99.90
50804;DHT22;37205;51.434;6.756;2023-12-20T09:03:32;7.10;99.90
50804;DHT22;37205;51.434;6.756;2023-12-20T09:05:58;7.10;99.90
50804;DHT22;37205;51.434;6.756;2023-12-20T09:08:23;7.10;99.90
50804;DHT22;37205;51.434;6.756;2023-12-20T09:10:49;7.10;99.90
50804;DHT22;37205;51.434;6.756;2023-12-20T09:13:14;7.00;99.90
50804;DHT22;37205;51.434;6.756;2023-12-20T09:15:40;7.00;99.90
50804;DHT22;37205;51.434;6.756;2023-12-20T09:18:06;7.10;99.90
50804;DHT22;37205;51.434;6.756;2023-12-20T09:20:31;7.10;99.90
50804;DHT22;37205;51.434;6.756;2023-12-20T09:22:57;7.10;99.90
50804;DHT22;37205;51.434;6.756;2023-12-20T09:25:22;7.10;99.90
50804;DHT22;37205;51.434;6.756;2023-12-20T09:27:48;7.00;99.90
50804;DHT22;37205;51.434;6.756;2023-12-20T09:30:14;7.00;99.90
50804;DHT22;37205;51.434;6.756;2023-12-20T09:32:39;7.10;99.90
50804;DHT22;37205;51.434;6.756;2023-12-20T09:35:05;7.10;99.90
50804;DHT22;37205;51.434;6.756;2023-12-20T09:37:32;7.10;99.90
50804;DHT22;37205;51.434;6.756;2023-12-20T09:39:57;7.10;99.90
50804;DHT22;37205;51.434;6.756;2023-12-20T09:45:20;7.10;99.90
50804;DHT22;37205;51.434;6.756;2023-12-20T09:47:48;7.10;99.90
50804;DHT22;37205;51.434;6.756;2023-12-20T09:50:14;7.10;99.90
50804;DHT22;37205;51.434;6.756;2023-12-20T09:52:40;7.10;99.90
50804;DHT22;37205;51.434;6.756;2023-12-20T09:55:07;7.10;99.90
50804;DHT22;37205;51.434;6.756;2023-12-20T09:57:33;7.20;99.90
50804;DHT22;37205;51.434;6.756;2023-12-20T09:59:59;7.20;99.90
50804;DHT22;37205;51.434;6.756;2023-12-20T10:02:25;7.20;99.90
50804;DHT22;37205;51.434;6.756;2023-12-20T10:04:55;7.20;99.90
50804;DHT22;37205;51.434;6.756;2023-12-20T10:07:21;7.20;99.90
50804;DHT22;37205;51.434;6.756;2023-12-20T10:09:47;7.20;99.90
50804;DHT22;37205;51.434;6.756;2023-12-20T10:12:13;7.20;99.90
50804;DHT22;37205;51.434;6.756;2023-12-20T10:14:39;7.30;99.90
50804;DHT22;37205;51.434;6.756;2023-12-20T10:17:05;7.30;99.90
50804;DHT22;37205;51.434;6.756;2023-12-20T10:19:32;7.30;99.90
50804;DHT22;37205;51.434;6.756;2023-12-20T10:22:01;7.30;99.90
50804;DHT22;37205;51.434;6.756;2023-12-20T10:24:29;7.50;99.90
50804;DHT22;37205;51.434;6.756;2023-12-20T10:27:04;7.50;99.90
50804;DHT22;37205;51.434;6.756;2023-12-20T10:29:34;7.50;99.90
50804;DHT22;37205;51.434;6.756;2023-12-20T10:32:26;7.40;99.90
50804;DHT22;37205;51.434;6.756;2023-12-20T10:34:54;7.50;99.90
50804;DHT22;37205;51.434;6.756;2023-12-20T10:37:20;7.50;99.90
50804;DHT22;37205;51.434;6.756;2023-12-20T10:39:53;7.50;99.90
50804;DHT22;37205;51.434;6.756;2023-12-20T10:42:22;7.50;99.90
50804;DHT22;37205;51.434;6.756;2023-12-20T10:44:49;7.50;99.90
50804;DHT22;37205;51.434;6.756;2023-12-20T10:47:15;7.50;99.90
50804;DHT22;37205;51.434;6.756;2023-12-20T10:49:41;7.50;99.90
50804;DHT22;37205;51.434;6.756;2023-12-20T10:52:09;7.50;99.90
50804;DHT22;37205;51.434;6.756;2023-12-20T10:54:34;7.60;99.90
50804;DHT22;37205;51.434;6.756;2023-12-20T10:57:00;7.60;99.90
50804;DHT22;37205;51.434;6.756;2023-12-20T10:59:29;7.60;99.90
50804;DHT22;37205;51.434;6.756;2023-12-20T11:01:59;7.60;99.90
50804;DHT22;37205;51.434;6.756;2023-12-20T11:04:54;7.60;99.90
50804;DHT22;37205;51.434;6.756;2023-12-20T11:07:32;7.60;99.90
50804;DHT22;37205;51.434;6.756;2023-12-20T11:10:03;7.60;99.90
50804;DHT22;37205;51.434;6.756;2023-12-20T11:12:56;7.50;99.90
50804;DHT22;37205;51.434;6.756;2023-12-20T11:15:23;7.50;99.90
50804;DHT22;37205;51.434;6.756;2023-12-20T11:17:57;7.60;99.90
50804;DHT22;37205;51.434;6.756;2023-12-20T11:20:38;7.60;99.90
50804;DHT22;37205;51.434;6.756;2023-12-20T11:23:05;7.70;99.90
50804;DHT22;37205;51.434;6.756;2023-12-20T11:25:50;7.70;99.90
50804;DHT22;37205;51.434;6.756;2023-12-20T11:28:21;7.90;99.90
50804;DHT22;37205;51.434;6.756;2023-12-20T11:30:47;7.90;99.90
50804;DHT22;37205;51.434;6.756;2023-12-20T11:33:14;7.90;99.90
50804;DHT22;37205;51.434;6.756;2023-12-20T11:35:40;7.90;99.90
50804;DHT22;37205;51.434;6.756;2023-12-20T11:38:08;7.80;99.90
50804;DHT22;37205;51.434;6.756;2023-12-20T11:40:35;7.80;99.90
50804;DHT22;37205;51.434;6.756;2023-12-20T11:43:01;7.90;99.90
50804;DHT22;37205;51.434;6.756;2023-12-20T11:45:26;7.90;99.90
50804;DHT22;37205;51.434;6.756;2023-12-20T11:47:53;7.80;99.90
50804;DHT22;37205;51.434;6.756;2023-12-20T11:50:23;7.90;99.90
50804;DHT22;37205;51.434;6.756;2023-12-20T11:52:49;7.80;99.90
50804;DHT22;37205;51.434;6.756;2023-12-20T11:55:15;7.80;99.90
50804;DHT22;37205;51.434;6.756;2023-12-20T11:57:42;7.70;99.90
50804;DHT22;37205;51.434;6.756;2023-12-20T12:00:08;7.70;99.90
50804;DHT22;37205;51.434;6.756;2023-12-20T12:02:34;7.70;99.90
50804;DHT22;37205;51.434;6.756;2023-12-20T12:04:59;7.70;99.90
50804;DHT22;37205;51.434;6.756;2023-12-20T12:07:25;7.70;99.90
50804;DHT22;37205;51.434;6.756;2023-12-20T12:09:51;7.80;99.90
50804;DHT22;37205;51.434;6.756;2023-12-20T12:12:17;7.70;99.90
50804;DHT22;37205;51.434;6.756;2023-12-20T12:14:45;7.70;99.90
50804;DHT22;37205;51.434;6.756;2023-12-20T12:17:11;7.70;99.90
50804;DHT22;37205;51.434;6.756;2023-12-20T12:19:38;7.80;99.90
50804;DHT22;37205;51.434;6.756;2023-12-20T12:22:07;7.70;99.90
50804;DHT22;37205;51.434;6.756;2023-12-20T12:24:36;7.80;99.90
50804;DHT22;37205;51.434;6.756;2023-12-20T12:27:02;7.80;99.90
50804;DHT22;37205;51.434;6.756;2023-12-20T12:29:27;7.90;99.90
50804;DHT22;37205;51.434;6.756;2023-12-20T12:31:53;7.90;99.90
50804;DHT22;37205;51.434;6.756;2023-12-20T12:34:18;7.80;99.90
50804;DHT22;37205;51.434;6.756;2023-12-20T12:36:44;7.80;99.90
50804;DHT22;37205;51.434;6.756;2023-12-20T12:39:14;7.80;99.90
50804;DHT22;37205;51.434;6.756;2023-12-20T12:41:42;7.80;99.90
50804;DHT22;37205;51.434;6.756;2023-12-20T12:44:08;7.80;99.90
50804;DHT22;37205;51.434;6.756;2023-12-20T12:46:34;7.90;99.90
50804;DHT22;37205;51.434;6.756;2023-12-20T12:48:59;7.90;99.90
50804;DHT22;37205;51.434;6.756;2023-12-20T12:51:25;7.80;99.90
50804;DHT22;37205;51.434;6.756;2023-12-20T12:53:51;7.70;99.90
50804;DHT22;37205;51.434;6.756;2023-12-20T12:56:16;7.70;99.90
50804;DHT22;37205;51.434;6.756;2023-12-20T12:58:42;7.70;99.90
50804;DHT22;37205;51.434;6.756;2023-12-20T13:01:08;7.60;99.90
50804;DHT22;37205;51.434;6.756;2023-12-20T13:03:34;7.60;99.90
50804;DHT22;37205;51.434;6.756;2023-12-20T13:06:00;7.60;99.90
50804;DHT22;37205;51.434;6.756;2023-12-20T13:08:25;7.70;99.90
50804;DHT22;37205;51.434;6.756;2023-12-20T13:10:51;7.60;99.90
50804;DHT22;37205;51.434;6.756;2023-12-20T13:13:17;7.60;99.90
50804;DHT22;37205;51.434;6.756;2023-12-20T13:15:42;7.60;99.90
50804;DHT22;37205;51.434;6.756;2023-12-20T13:18:13;7.50;99.90
50804;DHT22;37205;51.434;6.756;2023-12-20T13:20:39;7.50;99.90
50804;DHT22;37205;51.434;6.756;2023-12-20T13:23:05;7.40;99.90
50804;DHT22;37205;51.434;6.756;2023-12-20T13:25:31;7.40;99.90
50804;DHT22;37205;51.434;6.756;2023-12-20T13:27:56;7.40;99.90
50804;DHT22;37205;51.434;6.756;2023-12-20T13:30:22;7.40;99.90
50804;DHT22;37205;51.434;6.756;2023-12-20T13:32:47;7.30;99.90
50804;DHT22;37205;51.434;6.756;2023-12-20T13:35:14;7.30;99.90
50804;DHT22;37205;51.434;6.756;2023-12-20T13:37:39;7.30;99.90
50804;DHT22;37205;51.434;6.756;2023-12-20T13:40:05;7.30;99.90
50804;DHT22;37205;51.434;6.756;2023-12-20T13:42:31;7.30;99.90
50804;DHT22;37205;51.434;6.756;2023-12-20T13:44:57;7.30;99.90
50804;DHT22;37205;51.434;6.756;2023-12-20T13:47:22;7.30;99.90
50804;DHT22;37205;51.434;6.756;2023-12-20T13:49:48;7.40;99.90
50804;DHT22;37205;51.434;6.756;2023-12-20T13:52:14;7.40;99.90
50804;DHT22;37205;51.434;6.756;2023-12-20T13:54:40;7.40;99.90
50804;DHT22;37205;51.434;6.756;2023-12-20T13:57:05;7.30;99.90
50804;DHT22;37205;51.434;6.756;2023-12-20T13:59:31;7.40;99.90
50804;DHT22;37205;51.434;6.756;2023-12-20T14:01:56;7.30;99.90
50804;DHT22;37205;51.434;6.756;2023-12-20T14:04:22;7.30;99.90
50804;DHT22;37205;51.434;6.756;2023-12-20T14:06:48;7.40;99.90
50804;DHT22;37205;51.434;6.756;2023-12-20T14:09:13;7.30;99.90
50804;DHT22;37205;51.434;6.756;2023-12-20T14:11:40;7.30;99.90
50804;DHT22;37205;51.434;6.756;2023-12-20T14:14:07;7.40;99.90
50804;DHT22;37205;51.434;6.756;2023-12-20T14:16:35;7.30;99.90
50804;DHT22;37205;51.434;6.756;2023-12-20T14:19:01;7.30;99.90
50804;DHT22;37205;51.434;6.756;2023-12-20T14:21:28;7.30;99.90
50804;DHT22;37205;51.434;6.756;2023-12-20T14:23:54;7.40;99.90
50804;DHT22;37205;51.434;6.756;2023-12-20T14:26:19;7.40;99.90
50804;DHT22;37205;51.434;6.756;2023-12-20T14:28:45;7.40;99.90
50804;DHT22;37205;51.434;6.756;2023-12-20T14:31:10;7.50;99.90
50804;DHT22;37205;51.434;6.756;2023-12-20T14:33:37;7.50;99.90
50804;DHT22;37205;51.434;6.756;2023-12-20T14:36:04;7.50;99.90
50804;DHT22;37205;51.434;6.756;2023-12-20T14:38:31;7.50;99.90
50804;DHT22;37205;51.434;6.756;2023-12-20T14:40:56;7.50;99.90
50804;DHT22;37205;51.434;6.756;2023-12-20T14:43:22;7.60;99.90
50804;DHT22;37205;51.434;6.756;2023-12-20T14:45:48;7.60;99.90
50804;DHT22;37205;51.434;6.756;2023-12-20T14:48:13;7.60;99.90
50804;DHT22;37205;51.434;6.756;2023-12-20T14:50:39;7.60;99.90
50804;DHT22;37205;51.434;6.756;2023-12-20T14:53:06;7.60;99.90
50804;DHT22;37205;51.434;6.756;2023-12-20T14:55:32;7.60;99.90
50804;DHT22;37205;51.434;6.756;2023-12-20T14:57:59;7.60;99.90
50804;DHT22;37205;51.434;6.756;2023-12-20T15:00:25;7.70;99.90
50804;DHT22;37205;51.434;6.756;2023-12-20T15:02:50;7.70;99.90
50804;DHT22;37205;51.434;6.756;2023-12-20T15:05:18;7.70;99.90
50804;DHT22;37205;51.434;6.756;2023-12-20T15:07:44;7.70;99.90
50804;DHT22;37205;51.434;6.756;2023-12-20T15:10:09;7.70;99.90
50804;DHT22;37205;51.434;6.756;2023-12-20T15:12:35;7.70;99.90
50804;DHT22;37205;51.434;6.756;2023-12-20T15:15:00;7.70;99.90
50804;DHT22;37205;51.434;6.756;2023-12-20T15:17:26;7.80;99.90
50804;DHT22;37205;51.434;6.756;2023-12-20T15:19:52;7.80;99.90
50804;DHT22;37205;51.434;6.756;2023-12-20T15:22:17;7.80;99.90
50804;DHT22;37205;51.434;6.756;2023-12-20T15:24:43;7.80;99.90
50804;DHT22;37205;51.434;6.756;2023-12-20T15:27:11;7.80;99.90
50804;DHT22;37205;51.434;6.756;2023-12-20T15:29:37;7.80;99.90
50804;DHT22;37205;51.434;6.756;2023-12-20T15:32:02;7.80;99.90
50804;DHT22;37205;51.434;6.756;2023-12-20T15:34:31;7.80;99.90
50804;DHT22;37205;51.434;6.756;2023-12-20T15:36:57;7.80;99.90
50804;DHT22;37205;51.434;6.756;2023-12-20T15:39:22;7.80;99.90
50804;DHT22;37205;51.434;6.756;2023-12-20T15:41:48;7.80;99.90
50804;DHT22;37205;51.434;6.756;2023-12-20T15:44:14;7.80;99.90
50804;DHT22;37205;51.434;6.756;2023-12-20T15:46:41;7.80;99.90
50804;DHT22;37205;51.434;6.756;2023-12-20T15:49:07;7.80;99.90
50804;DHT22;37205;51.434;6.756;2023-12-20T15:51:32;7.80;99.90
50804;DHT22;37205;51.434;6.756;2023-12-20T15:53:58;7.80;99.90
50804;DHT22;37205;51.434;6.756;2023-12-20T15:56:23;7.80;99.90
50804;DHT22;37205;51.434;6.756;2023-12-20T15:58:49;7.80;99.90